sensor_id;sensor_type;location;lat;lon;timestamp;P1;durP1;ratioP1;P2;durP2;ratioP2
17741;SDS011;8993;51.822;-2.268;2023-02-28T00:02:56;5.08;;;1.61;;
17741;SDS011;8993;51.822;-2.268;2023-02-28T00:08:00;5.69;;;1.76;;
17741;SDS011;8993;51.822;-2.268;2023-02-28T00:13:05;6.75;;;2.04;;
17741;SDS011;8993;51.822;-2.268;2023-02-28T00:18:09;9.41;;;2.46;;
17741;SDS011;8993;51.822;-2.268;2023-02-28T00:23:13;7.18;;;2.34;;
17741;SDS011;8993;51.822;-2.268;2023-02-28T00:28:17;9.02;;;2.75;;
17741;SDS011;8993;51.822;-2.268;2023-02-28T00:33:21;8.44;;;2.76;;
17741;SDS011;8993;51.822;-2.268;2023-02-28T00:38:25;7.35;;;2.33;;
17741;SDS011;8993;51.822;-2.268;2023-02-28T00:43:30;6.93;;;2.17;;
17741;SDS011;8993;51.822;-2.268;2023-02-28T00:48:33;7.12;;;2.18;;
17741;SDS011;8993;51.822;-2.268;2023-02-28T00:53:37;5.98;;;1.98;;
17741;SDS011;8993;51.822;-2.268;2023-02-28T00:58:44;7.31;;;2.13;;
17741;SDS011;8993;51.822;-2.268;2023-02-28T01:03:49;8.68;;;2.38;;
17741;SDS011;8993;51.822;-2.268;2023-02-28T01:08:53;7.49;;;2.54;;
17741;SDS011;8993;51.822;-2.268;2023-02-28T01:13:57;7.02;;;2.59;;
17741;SDS011;8993;51.822;-2.268;2023-02-28T01:19:04;8.10;;;2.65;;
17741;SDS011;8993;51.822;-2.268;2023-02-28T01:24:08;10.98;;;3.58;;
17741;SDS011;8993;51.822;-2.268;2023-02-28T01:29:12;10.05;;;3.54;;
17741;SDS011;8993;51.822;-2.268;2023-02-28T01:34:16;10.60;;;4.35;;
17741;SDS011;8993;51.822;-2.268;2023-02-28T01:39:20;9.44;;;4.42;;
17741;SDS011;8993;51.822;-2.268;2023-02-28T01:45:28;11.23;;;4.77;;
17741;SDS011;8993;51.822;-2.268;2023-02-28T01:49:29;7.98;;;4.67;;
17741;SDS011;8993;51.822;-2.268;2023-02-28T01:54:33;8.53;;;4.94;;
17741;SDS011;8993;51.822;-2.268;2023-02-28T01:59:37;8.97;;;4.67;;
17741;SDS011;8993;51.822;-2.268;2023-02-28T02:04:41;8.55;;;5.16;;
17741;SDS011;8993;51.822;-2.268;2023-02-28T02:09:45;10.97;;;5.75;;
17741;SDS011;8993;51.822;-2.268;2023-02-28T02:14:52;9.34;;;5.83;;
17741;SDS011;8993;51.822;-2.268;2023-02-28T02:20:29;10.86;;;7.22;;
17741;SDS011;8993;51.822;-2.268;2023-02-28T02:25:16;13.32;;;8.85;;
17741;SDS011;8993;51.822;-2.268;2023-02-28T02:30:06;12.91;;;8.70;;
17741;SDS011;8993;51.822;-2.268;2023-02-28T02:35:08;11.67;;;8.77;;
17741;SDS011;8993;51.822;-2.268;2023-02-28T02:40:11;14.50;;;10.85;;
17741;SDS011;8993;51.822;-2.268;2023-02-28T02:45:15;15.11;;;10.76;;
17741;SDS011;8993;51.822;-2.268;2023-02-28T02:50:19;18.19;;;13.33;;
17741;SDS011;8993;51.822;-2.268;2023-02-28T02:55:22;17.97;;;12.76;;
17741;SDS011;8993;51.822;-2.268;2023-02-28T03:00:26;17.50;;;12.50;;
17741;SDS011;8993;51.822;-2.268;2023-02-28T03:05:32;15.62;;;11.56;;
17741;SDS011;8993;51.822;-2.268;2023-02-28T03:10:36;12.84;;;10.22;;
17741;SDS011;8993;51.822;-2.268;2023-02-28T03:15:40;12.65;;;9.67;;
17741;SDS011;8993;51.822;-2.268;2023-02-28T03:20:45;14.27;;;11.30;;
17741;SDS011;8993;51.822;-2.268;2023-02-28T03:25:52;15.13;;;10.01;;
17741;SDS011;8993;51.822;-2.268;2023-02-28T03:30:52;14.11;;;9.71;;
17741;SDS011;8993;51.822;-2.268;2023-02-28T03:35:57;16.42;;;11.04;;
17741;SDS011;8993;51.822;-2.268;2023-02-28T03:41:03;13.29;;;8.96;;
17741;SDS011;8993;51.822;-2.268;2023-02-28T03:46:07;13.50;;;9.17;;
17741;SDS011;8993;51.822;-2.268;2023-02-28T03:51:10;13.48;;;9.48;;
17741;SDS011;8993;51.822;-2.268;2023-02-28T03:56:15;11.50;;;8.74;;
17741;SDS011;8993;51.822;-2.268;2023-02-28T04:01:19;10.67;;;7.81;;
17741;SDS011;8993;51.822;-2.268;2023-02-28T04:06:23;9.18;;;6.87;;
17741;SDS011;8993;51.822;-2.268;2023-02-28T04:11:27;11.18;;;7.79;;
17741;SDS011;8993;51.822;-2.268;2023-02-28T04:16:31;13.74;;;9.93;;
17741;SDS011;8993;51.822;-2.268;2023-02-28T04:21:35;19.70;;;15.53;;
17741;SDS011;8993;51.822;-2.268;2023-02-28T04:26:38;20.69;;;16.58;;
17741;SDS011;8993;51.822;-2.268;2023-02-28T04:31:43;15.24;;;12.59;;
17741;SDS011;8993;51.822;-2.268;2023-02-28T04:36:46;14.88;;;12.27;;
17741;SDS011;8993;51.822;-2.268;2023-02-28T04:41:50;16.19;;;12.96;;
17741;SDS011;8993;51.822;-2.268;2023-02-28T04:46:54;15.47;;;11.74;;
17741;SDS011;8993;51.822;-2.268;2023-02-28T04:51:59;16.16;;;12.98;;
17741;SDS011;8993;51.822;-2.268;2023-02-28T04:57:03;13.52;;;11.25;;
17741;SDS011;8993;51.822;-2.268;2023-02-28T05:02:07;15.10;;;12.47;;
17741;SDS011;8993;51.822;-2.268;2023-02-28T05:07:12;14.02;;;11.65;;
17741;SDS011;8993;51.822;-2.268;2023-02-28T05:12:16;18.48;;;13.63;;
17741;SDS011;8993;51.822;-2.268;2023-02-28T05:17:21;17.96;;;13.28;;
17741;SDS011;8993;51.822;-2.268;2023-02-28T05:22:24;15.33;;;12.28;;
17741;SDS011;8993;51.822;-2.268;2023-02-28T05:27:29;16.11;;;13.40;;
17741;SDS011;8993;51.822;-2.268;2023-02-28T05:32:33;17.76;;;14.22;;
17741;SDS011;8993;51.822;-2.268;2023-02-28T05:37:37;18.20;;;14.85;;
17741;SDS011;8993;51.822;-2.268;2023-02-28T05:42:41;14.74;;;12.39;;
17741;SDS011;8993;51.822;-2.268;2023-02-28T05:47:45;17.54;;;13.97;;
17741;SDS011;8993;51.822;-2.268;2023-02-28T05:52:50;15.38;;;13.14;;
17741;SDS011;8993;51.822;-2.268;2023-02-28T05:57:55;13.72;;;11.23;;
17741;SDS011;8993;51.822;-2.268;2023-02-28T06:02:59;18.86;;;14.89;;
17741;SDS011;8993;51.822;-2.268;2023-02-28T06:08:07;17.09;;;14.00;;
17741;SDS011;8993;51.822;-2.268;2023-02-28T06:13:11;15.60;;;13.47;;
17741;SDS011;8993;51.822;-2.268;2023-02-28T06:18:16;18.50;;;14.37;;
17741;SDS011;8993;51.822;-2.268;2023-02-28T06:23:20;17.67;;;14.56;;
17741;SDS011;8993;51.822;-2.268;2023-02-28T06:28:24;17.50;;;14.70;;
17741;SDS011;8993;51.822;-2.268;2023-02-28T06:33:28;19.63;;;15.75;;
17741;SDS011;8993;51.822;-2.268;2023-02-28T06:38:33;18.53;;;15.39;;
17741;SDS011;8993;51.822;-2.268;2023-02-28T06:43:39;16.47;;;13.28;;
17741;SDS011;8993;51.822;-2.268;2023-02-28T06:48:40;26.35;;;19.30;;
17741;SDS011;8993;51.822;-2.268;2023-02-28T06:53:45;23.72;;;18.34;;
17741;SDS011;8993;51.822;-2.268;2023-02-28T06:58:49;19.55;;;15.78;;
17741;SDS011;8993;51.822;-2.268;2023-02-28T07:03:53;21.61;;;16.72;;
17741;SDS011;8993;51.822;-2.268;2023-02-28T07:08:57;20.34;;;15.14;;
17741;SDS011;8993;51.822;-2.268;2023-02-28T07:14:00;20.06;;;15.61;;
17741;SDS011;8993;51.822;-2.268;2023-02-28T07:19:05;24.25;;;18.10;;
17741;SDS011;8993;51.822;-2.268;2023-02-28T07:24:09;28.19;;;20.65;;
17741;SDS011;8993;51.822;-2.268;2023-02-28T07:29:13;27.93;;;20.88;;
17741;SDS011;8993;51.822;-2.268;2023-02-28T07:34:17;42.21;;;27.92;;
17741;SDS011;8993;51.822;-2.268;2023-02-28T07:39:21;40.06;;;26.48;;
17741;SDS011;8993;51.822;-2.268;2023-02-28T07:44:25;47.13;;;29.43;;
17741;SDS011;8993;51.822;-2.268;2023-02-28T07:49:29;47.93;;;30.54;;
17741;SDS011;8993;51.822;-2.268;2023-02-28T07:54:34;60.20;;;34.51;;
17741;SDS011;8993;51.822;-2.268;2023-02-28T07:59:38;75.19;;;39.56;;
17741;SDS011;8993;51.822;-2.268;2023-02-28T08:04:42;72.99;;;38.06;;
17741;SDS011;8993;51.822;-2.268;2023-02-28T08:09:46;66.65;;;36.76;;
17741;SDS011;8993;51.822;-2.268;2023-02-28T08:14:50;70.43;;;37.39;;
17741;SDS011;8993;51.822;-2.268;2023-02-28T08:19:54;58.46;;;33.31;;
17741;SDS011;8993;51.822;-2.268;2023-02-28T08:24:59;64.32;;;34.28;;
17741;SDS011;8993;51.822;-2.268;2023-02-28T08:30:03;67.60;;;35.38;;
17741;SDS011;8993;51.822;-2.268;2023-02-28T08:35:07;63.12;;;34.53;;
17741;SDS011;8993;51.822;-2.268;2023-02-28T08:40:11;57.69;;;31.27;;
17741;SDS011;8993;51.822;-2.268;2023-02-28T08:45:16;57.71;;;30.56;;
17741;SDS011;8993;51.822;-2.268;2023-02-28T08:50:20;58.72;;;31.43;;
17741;SDS011;8993;51.822;-2.268;2023-02-28T08:55:24;53.98;;;29.51;;
17741;SDS011;8993;51.822;-2.268;2023-02-28T09:00:28;52.30;;;29.12;;
17741;SDS011;8993;51.822;-2.268;2023-02-28T09:05:32;53.96;;;29.07;;
17741;SDS011;8993;51.822;-2.268;2023-02-28T09:10:37;51.12;;;28.29;;
17741;SDS011;8993;51.822;-2.268;2023-02-28T09:15:41;53.18;;;28.77;;
17741;SDS011;8993;51.822;-2.268;2023-02-28T09:20:45;50.41;;;28.01;;
17741;SDS011;8993;51.822;-2.268;2023-02-28T09:25:50;49.14;;;28.26;;
17741;SDS011;8993;51.822;-2.268;2023-02-28T09:30:53;51.07;;;28.07;;
17741;SDS011;8993;51.822;-2.268;2023-02-28T09:35:58;48.99;;;28.44;;
17741;SDS011;8993;51.822;-2.268;2023-02-28T09:41:03;44.92;;;26.03;;
17741;SDS011;8993;51.822;-2.268;2023-02-28T09:46:08;43.75;;;25.12;;
17741;SDS011;8993;51.822;-2.268;2023-02-28T09:51:12;47.48;;;28.00;;
17741;SDS011;8993;51.822;-2.268;2023-02-28T09:56:18;50.44;;;28.56;;
17741;SDS011;8993;51.822;-2.268;2023-02-28T10:01:23;53.61;;;30.50;;
17741;SDS011;8993;51.822;-2.268;2023-02-28T10:06:26;50.16;;;29.41;;
17741;SDS011;8993;51.822;-2.268;2023-02-28T10:11:29;42.88;;;25.15;;
17741;SDS011;8993;51.822;-2.268;2023-02-28T10:16:34;38.39;;;22.98;;
17741;SDS011;8993;51.822;-2.268;2023-02-28T10:21:41;37.44;;;22.02;;
17741;SDS011;8993;51.822;-2.268;2023-02-28T10:26:41;36.27;;;21.88;;
17741;SDS011;8993;51.822;-2.268;2023-02-28T10:31:47;29.81;;;18.43;;
17741;SDS011;8993;51.822;-2.268;2023-02-28T10:36:52;27.86;;;18.24;;
17741;SDS011;8993;51.822;-2.268;2023-02-28T10:41:56;25.32;;;16.73;;
17741;SDS011;8993;51.822;-2.268;2023-02-28T10:47:00;25.90;;;16.44;;
17741;SDS011;8993;51.822;-2.268;2023-02-28T10:52:07;24.52;;;15.48;;
17741;SDS011;8993;51.822;-2.268;2023-02-28T10:57:15;20.14;;;13.34;;
17741;SDS011;8993;51.822;-2.268;2023-02-28T11:02:35;23.90;;;14.92;;
17741;SDS011;8993;51.822;-2.268;2023-02-28T11:07:19;22.08;;;14.41;;
17741;SDS011;8993;51.822;-2.268;2023-02-28T11:12:24;20.39;;;12.16;;
17741;SDS011;8993;51.822;-2.268;2023-02-28T11:17:28;16.85;;;11.06;;
17741;SDS011;8993;51.822;-2.268;2023-02-28T11:22:31;18.00;;;11.43;;
17741;SDS011;8993;51.822;-2.268;2023-02-28T11:27:44;20.25;;;12.37;;
17741;SDS011;8993;51.822;-2.268;2023-02-28T11:32:39;19.22;;;11.10;;
17741;SDS011;8993;51.822;-2.268;2023-02-28T11:37:44;21.12;;;11.57;;
17741;SDS011;8993;51.822;-2.268;2023-02-28T11:42:50;18.09;;;11.30;;
17741;SDS011;8993;51.822;-2.268;2023-02-28T11:47:55;18.24;;;10.62;;
17741;SDS011;8993;51.822;-2.268;2023-02-28T11:52:59;17.45;;;10.59;;
17741;SDS011;8993;51.822;-2.268;2023-02-28T11:58:13;16.22;;;10.05;;
17741;SDS011;8993;51.822;-2.268;2023-02-28T12:03:10;16.46;;;10.77;;
17741;SDS011;8993;51.822;-2.268;2023-02-28T12:08:15;16.66;;;10.03;;
17741;SDS011;8993;51.822;-2.268;2023-02-28T12:13:18;15.56;;;9.76;;
17741;SDS011;8993;51.822;-2.268;2023-02-28T12:18:23;14.83;;;8.22;;
17741;SDS011;8993;51.822;-2.268;2023-02-28T12:23:29;14.36;;;8.77;;
17741;SDS011;8993;51.822;-2.268;2023-02-28T12:28:30;14.83;;;8.62;;
17741;SDS011;8993;51.822;-2.268;2023-02-28T12:33:34;14.81;;;8.61;;
17741;SDS011;8993;51.822;-2.268;2023-02-28T12:38:38;14.89;;;8.93;;
17741;SDS011;8993;51.822;-2.268;2023-02-28T12:43:42;14.78;;;8.94;;
17741;SDS011;8993;51.822;-2.268;2023-02-28T12:48:46;17.70;;;10.32;;
17741;SDS011;8993;51.822;-2.268;2023-02-28T12:53:52;18.09;;;10.27;;
17741;SDS011;8993;51.822;-2.268;2023-02-28T12:58:54;14.85;;;8.32;;
17741;SDS011;8993;51.822;-2.268;2023-02-28T13:04:14;17.51;;;10.07;;
17741;SDS011;8993;51.822;-2.268;2023-02-28T13:09:08;30.46;;;13.48;;
17741;SDS011;8993;51.822;-2.268;2023-02-28T13:14:19;14.44;;;7.89;;
17741;SDS011;8993;51.822;-2.268;2023-02-28T13:19:16;10.22;;;5.90;;
17741;SDS011;8993;51.822;-2.268;2023-02-28T13:24:39;9.09;;;5.49;;
17741;SDS011;8993;51.822;-2.268;2023-02-28T13:29:27;8.23;;;5.23;;
17741;SDS011;8993;51.822;-2.268;2023-02-28T13:34:29;9.14;;;4.99;;
17741;SDS011;8993;51.822;-2.268;2023-02-28T13:39:51;7.93;;;4.82;;
17741;SDS011;8993;51.822;-2.268;2023-02-28T13:45:19;7.45;;;4.20;;
17741;SDS011;8993;51.822;-2.268;2023-02-28T13:49:44;6.66;;;3.87;;
17741;SDS011;8993;51.822;-2.268;2023-02-28T13:54:55;6.63;;;3.72;;
17741;SDS011;8993;51.822;-2.268;2023-02-28T13:59:57;6.60;;;4.17;;
17741;SDS011;8993;51.822;-2.268;2023-02-28T14:04:59;7.15;;;4.37;;
17741;SDS011;8993;51.822;-2.268;2023-02-28T14:10:02;5.39;;;3.41;;
17741;SDS011;8993;51.822;-2.268;2023-02-28T14:15:23;5.99;;;3.86;;
17741;SDS011;8993;51.822;-2.268;2023-02-28T14:20:13;7.10;;;4.74;;
17741;SDS011;8993;51.822;-2.268;2023-02-28T14:25:18;7.63;;;5.28;;
17741;SDS011;8993;51.822;-2.268;2023-02-28T14:30:40;8.48;;;5.56;;
17741;SDS011;8993;51.822;-2.268;2023-02-28T14:35:35;9.25;;;5.77;;
17741;SDS011;8993;51.822;-2.268;2023-02-28T14:40:32;8.83;;;5.35;;
17741;SDS011;8993;51.822;-2.268;2023-02-28T14:45:36;8.98;;;5.54;;
17741;SDS011;8993;51.822;-2.268;2023-02-28T14:50:41;7.50;;;4.65;;
17741;SDS011;8993;51.822;-2.268;2023-02-28T14:55:45;4.80;;;3.28;;
17741;SDS011;8993;51.822;-2.268;2023-02-28T15:00:49;6.48;;;3.95;;
17741;SDS011;8993;51.822;-2.268;2023-02-28T15:05:53;6.77;;;4.26;;
17741;SDS011;8993;51.822;-2.268;2023-02-28T15:10:57;5.91;;;3.70;;
17741;SDS011;8993;51.822;-2.268;2023-02-28T15:16:01;6.24;;;4.29;;
17741;SDS011;8993;51.822;-2.268;2023-02-28T15:21:06;6.46;;;3.80;;
17741;SDS011;8993;51.822;-2.268;2023-02-28T15:26:10;8.06;;;3.94;;
17741;SDS011;8993;51.822;-2.268;2023-02-28T15:31:19;5.34;;;3.43;;
17741;SDS011;8993;51.822;-2.268;2023-02-28T15:36:18;7.47;;;4.16;;
17741;SDS011;8993;51.822;-2.268;2023-02-28T15:41:24;5.13;;;2.64;;
17741;SDS011;8993;51.822;-2.268;2023-02-28T15:46:26;5.65;;;3.23;;
17741;SDS011;8993;51.822;-2.268;2023-02-28T15:51:32;4.89;;;2.41;;
17741;SDS011;8993;51.822;-2.268;2023-02-28T15:56:35;4.25;;;2.53;;
17741;SDS011;8993;51.822;-2.268;2023-02-28T16:01:39;4.49;;;2.26;;
17741;SDS011;8993;51.822;-2.268;2023-02-28T16:06:44;4.99;;;2.51;;
17741;SDS011;8993;51.822;-2.268;2023-02-28T16:11:49;5.14;;;2.43;;
17741;SDS011;8993;51.822;-2.268;2023-02-28T16:16:54;9.72;;;4.33;;
17741;SDS011;8993;51.822;-2.268;2023-02-28T16:21:57;8.76;;;4.50;;
17741;SDS011;8993;51.822;-2.268;2023-02-28T16:27:01;10.31;;;5.00;;
17741;SDS011;8993;51.822;-2.268;2023-02-28T16:32:05;9.96;;;4.73;;
17741;SDS011;8993;51.822;-2.268;2023-02-28T16:37:11;8.50;;;4.08;;
17741;SDS011;8993;51.822;-2.268;2023-02-28T16:42:14;7.96;;;3.90;;
17741;SDS011;8993;51.822;-2.268;2023-02-28T16:47:18;9.29;;;4.54;;
17741;SDS011;8993;51.822;-2.268;2023-02-28T16:52:22;8.67;;;4.36;;
17741;SDS011;8993;51.822;-2.268;2023-02-28T16:57:27;9.08;;;4.97;;
17741;SDS011;8993;51.822;-2.268;2023-02-28T17:02:30;9.49;;;5.00;;
17741;SDS011;8993;51.822;-2.268;2023-02-28T17:07:35;9.17;;;4.88;;
17741;SDS011;8993;51.822;-2.268;2023-02-28T17:12:39;7.84;;;3.97;;
17741;SDS011;8993;51.822;-2.268;2023-02-28T17:17:43;8.82;;;4.65;;
17741;SDS011;8993;51.822;-2.268;2023-02-28T17:22:47;10.49;;;4.51;;
17741;SDS011;8993;51.822;-2.268;2023-02-28T17:27:51;9.05;;;4.19;;
17741;SDS011;8993;51.822;-2.268;2023-02-28T17:32:55;8.09;;;4.80;;
17741;SDS011;8993;51.822;-2.268;2023-02-28T17:38:00;8.49;;;4.67;;
17741;SDS011;8993;51.822;-2.268;2023-02-28T17:43:03;10.01;;;4.93;;
17741;SDS011;8993;51.822;-2.268;2023-02-28T17:48:09;10.24;;;5.14;;
17741;SDS011;8993;51.822;-2.268;2023-02-28T17:53:11;11.33;;;5.82;;
17741;SDS011;8993;51.822;-2.268;2023-02-28T17:58:16;11.91;;;6.88;;
17741;SDS011;8993;51.822;-2.268;2023-02-28T18:03:20;11.46;;;7.04;;
17741;SDS011;8993;51.822;-2.268;2023-02-28T18:08:24;13.46;;;7.81;;
17741;SDS011;8993;51.822;-2.268;2023-02-28T18:13:29;14.44;;;8.69;;
17741;SDS011;8993;51.822;-2.268;2023-02-28T18:18:33;13.87;;;9.31;;
17741;SDS011;8993;51.822;-2.268;2023-02-28T18:23:37;20.28;;;10.79;;
17741;SDS011;8993;51.822;-2.268;2023-02-28T18:28:41;16.72;;;10.13;;
17741;SDS011;8993;51.822;-2.268;2023-02-28T18:33:46;18.89;;;11.25;;
17741;SDS011;8993;51.822;-2.268;2023-02-28T18:38:49;19.01;;;11.79;;
17741;SDS011;8993;51.822;-2.268;2023-02-28T18:43:54;19.42;;;12.04;;
17741;SDS011;8993;51.822;-2.268;2023-02-28T18:48:57;16.43;;;10.47;;
17741;SDS011;8993;51.822;-2.268;2023-02-28T18:54:01;18.75;;;12.04;;
17741;SDS011;8993;51.822;-2.268;2023-02-28T18:59:05;22.28;;;14.11;;
17741;SDS011;8993;51.822;-2.268;2023-02-28T19:04:09;20.80;;;12.70;;
17741;SDS011;8993;51.822;-2.268;2023-02-28T19:09:13;20.37;;;13.04;;
17741;SDS011;8993;51.822;-2.268;2023-02-28T19:14:17;30.00;;;17.63;;
17741;SDS011;8993;51.822;-2.268;2023-02-28T19:19:22;34.62;;;19.25;;
17741;SDS011;8993;51.822;-2.268;2023-02-28T19:24:25;19.62;;;13.33;;
17741;SDS011;8993;51.822;-2.268;2023-02-28T19:29:29;14.82;;;10.71;;
17741;SDS011;8993;51.822;-2.268;2023-02-28T19:34:33;16.96;;;10.83;;
17741;SDS011;8993;51.822;-2.268;2023-02-28T19:39:37;17.02;;;10.80;;
17741;SDS011;8993;51.822;-2.268;2023-02-28T19:44:42;16.17;;;11.79;;
17741;SDS011;8993;51.822;-2.268;2023-02-28T19:49:46;15.45;;;11.31;;
17741;SDS011;8993;51.822;-2.268;2023-02-28T19:54:51;17.45;;;11.44;;
17741;SDS011;8993;51.822;-2.268;2023-02-28T19:59:55;16.36;;;11.73;;
17741;SDS011;8993;51.822;-2.268;2023-02-28T20:04:59;17.13;;;11.83;;
17741;SDS011;8993;51.822;-2.268;2023-02-28T20:10:04;17.65;;;12.02;;
17741;SDS011;8993;51.822;-2.268;2023-02-28T20:15:09;20.11;;;12.11;;
17741;SDS011;8993;51.822;-2.268;2023-02-28T20:20:13;18.39;;;11.79;;
17741;SDS011;8993;51.822;-2.268;2023-02-28T20:25:17;18.05;;;11.67;;
17741;SDS011;8993;51.822;-2.268;2023-02-28T20:30:21;16.91;;;12.05;;
17741;SDS011;8993;51.822;-2.268;2023-02-28T20:35:25;18.43;;;12.26;;
17741;SDS011;8993;51.822;-2.268;2023-02-28T20:40:30;18.13;;;12.41;;
17741;SDS011;8993;51.822;-2.268;2023-02-28T20:45:34;17.08;;;12.02;;
17741;SDS011;8993;51.822;-2.268;2023-02-28T20:50:38;16.88;;;11.40;;
17741;SDS011;8993;51.822;-2.268;2023-02-28T20:55:52;15.84;;;10.81;;
17741;SDS011;8993;51.822;-2.268;2023-02-28T21:00:48;14.43;;;9.34;;
17741;SDS011;8993;51.822;-2.268;2023-02-28T21:06:02;12.12;;;8.78;;
17741;SDS011;8993;51.822;-2.268;2023-02-28T21:10:58;13.63;;;9.24;;
17741;SDS011;8993;51.822;-2.268;2023-02-28T21:21:11;13.06;;;8.18;;
17741;SDS011;8993;51.822;-2.268;2023-02-28T21:31:32;8.76;;;5.94;;
17741;SDS011;8993;51.822;-2.268;2023-02-28T21:36:21;8.00;;;5.05;;
17741;SDS011;8993;51.822;-2.268;2023-02-28T21:41:25;8.47;;;5.83;;
17741;SDS011;8993;51.822;-2.268;2023-02-28T21:46:29;8.86;;;5.07;;
17741;SDS011;8993;51.822;-2.268;2023-02-28T21:51:34;8.29;;;5.52;;
17741;SDS011;8993;51.822;-2.268;2023-02-28T21:56:38;9.26;;;5.52;;
17741;SDS011;8993;51.822;-2.268;2023-02-28T22:01:42;10.02;;;5.79;;
17741;SDS011;8993;51.822;-2.268;2023-02-28T22:06:47;9.54;;;5.91;;
17741;SDS011;8993;51.822;-2.268;2023-02-28T22:11:50;8.79;;;6.05;;
17741;SDS011;8993;51.822;-2.268;2023-02-28T22:16:54;7.64;;;5.46;;
17741;SDS011;8993;51.822;-2.268;2023-02-28T22:21:58;9.98;;;6.69;;
17741;SDS011;8993;51.822;-2.268;2023-02-28T22:27:02;10.13;;;5.94;;
17741;SDS011;8993;51.822;-2.268;2023-02-28T22:32:07;8.46;;;4.80;;
17741;SDS011;8993;51.822;-2.268;2023-02-28T22:37:11;7.19;;;4.42;;
17741;SDS011;8993;51.822;-2.268;2023-02-28T22:42:14;6.31;;;3.96;;
17741;SDS011;8993;51.822;-2.268;2023-02-28T22:47:18;6.89;;;3.77;;
17741;SDS011;8993;51.822;-2.268;2023-02-28T22:52:24;6.99;;;4.13;;
17741;SDS011;8993;51.822;-2.268;2023-02-28T22:57:28;7.41;;;4.55;;
17741;SDS011;8993;51.822;-2.268;2023-02-28T23:02:32;6.79;;;4.12;;
17741;SDS011;8993;51.822;-2.268;2023-02-28T23:07:38;8.37;;;5.11;;
17741;SDS011;8993;51.822;-2.268;2023-02-28T23:12:42;9.26;;;5.01;;
17741;SDS011;8993;51.822;-2.268;2023-02-28T23:17:46;8.00;;;4.42;;
17741;SDS011;8993;51.822;-2.268;2023-02-28T23:22:50;7.54;;;3.38;;
17741;SDS011;8993;51.822;-2.268;2023-02-28T23:27:54;2.67;;;1.60;;
17741;SDS011;8993;51.822;-2.268;2023-02-28T23:32:58;2.80;;;0.86;;
17741;SDS011;8993;51.822;-2.268;2023-02-28T23:38:02;1.55;;;0.56;;
17741;SDS011;8993;51.822;-2.268;2023-02-28T23:43:06;1.26;;;0.53;;
17741;SDS011;8993;51.822;-2.268;2023-02-28T23:48:11;1.27;;;0.36;;
17741;SDS011;8993;51.822;-2.268;2023-02-28T23:53:14;1.40;;;0.51;;
17741;SDS011;8993;51.822;-2.268;2023-02-28T23:58:19;2.29;;;0.56;;
